sensor_id;sensor_type;location;lat;lon;timestamp;noise_LAeq;noise_LA_min;noise_LA_max;noise_LA01;noise_LA95
75467;Laerm;64050;50.634;3.062;2024-03-17T00:00:04;46.53;38.97;51.87;;
75467;Laerm;64050;50.634;3.062;2024-03-17T00:02:30;43.13;39.73;50.28;;
75467;Laerm;64050;50.634;3.062;2024-03-17T00:04:55;49.61;46.89;52.36;;
75467;Laerm;64050;50.634;3.062;2024-03-17T00:07:20;49.45;46.29;52.66;;
75467;Laerm;64050;50.634;3.062;2024-03-17T00:09:46;46.22;38.88;51.66;;
75467;Laerm;64050;50.634;3.062;2024-03-17T00:12:11;43.15;40.76;54.79;;
75467;Laerm;64050;50.634;3.062;2024-03-17T00:14:37;48.68;39.92;52.32;;
75467;Laerm;64050;50.634;3.062;2024-03-17T00:17:04;49.42;46.41;53.37;;
75467;Laerm;64050;50.634;3.062;2024-03-17T00:19:29;49.62;46.20;53.57;;
75467;Laerm;64050;50.634;3.062;2024-03-17T00:21:54;49.52;46.58;61.95;;
75467;Laerm;64050;50.634;3.062;2024-03-17T00:24:19;48.48;40.76;52.01;;
75467;Laerm;64050;50.634;3.062;2024-03-17T00:26:45;45.35;38.87;67.17;;
75467;Laerm;64050;50.634;3.062;2024-03-17T00:29:10;41.97;38.89;45.84;;
75467;Laerm;64050;50.634;3.062;2024-03-17T00:31:35;47.34;41.23;53.31;;
75467;Laerm;64050;50.634;3.062;2024-03-17T00:34:02;49.19;46.54;51.72;;
75467;Laerm;64050;50.634;3.062;2024-03-17T00:36:27;49.35;46.78;51.80;;
75467;Laerm;64050;50.634;3.062;2024-03-17T00:38:52;46.95;38.43;52.24;;
75467;Laerm;64050;50.634;3.062;2024-03-17T00:41:17;47.53;38.26;51.36;;
75467;Laerm;64050;50.634;3.062;2024-03-17T00:43:44;47.73;38.51;52.07;;
75467;Laerm;64050;50.634;3.062;2024-03-17T00:46:09;42.49;39.24;53.87;;
75467;Laerm;64050;50.634;3.062;2024-03-17T00:48:35;43.79;39.35;55.55;;
75467;Laerm;64050;50.634;3.062;2024-03-17T00:51:00;42.41;38.83;58.34;;
75467;Laerm;64050;50.634;3.062;2024-03-17T00:53:25;47.58;38.33;53.00;;
75467;Laerm;64050;50.634;3.062;2024-03-17T00:55:53;48.14;38.06;51.72;;
75467;Laerm;64050;50.634;3.062;2024-03-17T00:58:22;41.91;38.01;56.72;;
75467;Laerm;64050;50.634;3.062;2024-03-17T01:00:47;44.02;39.39;55.00;;
75467;Laerm;64050;50.634;3.062;2024-03-17T01:03:15;47.67;38.88;81.06;;
75467;Laerm;64050;50.634;3.062;2024-03-17T01:05:40;43.07;38.85;52.31;;
75467;Laerm;64050;50.634;3.062;2024-03-17T01:08:08;42.44;39.30;51.27;;
75467;Laerm;64050;50.634;3.062;2024-03-17T01:10:36;47.22;39.10;51.73;;
75467;Laerm;64050;50.634;3.062;2024-03-17T01:13:02;47.37;38.47;52.23;;
75467;Laerm;64050;50.634;3.062;2024-03-17T01:15:27;41.66;38.34;45.19;;
75467;Laerm;64050;50.634;3.062;2024-03-17T01:17:52;42.35;37.32;47.65;;
75467;Laerm;64050;50.634;3.062;2024-03-17T01:20:18;47.90;37.81;51.41;;
75467;Laerm;64050;50.634;3.062;2024-03-17T01:22:43;49.21;46.22;54.45;;
75467;Laerm;64050;50.634;3.062;2024-03-17T01:25:09;49.33;46.49;54.08;;
75467;Laerm;64050;50.634;3.062;2024-03-17T01:27:34;49.22;46.15;51.71;;
75467;Laerm;64050;50.634;3.062;2024-03-17T01:29:59;40.86;37.05;50.07;;
75467;Laerm;64050;50.634;3.062;2024-03-17T01:32:24;44.41;37.48;51.14;;
75467;Laerm;64050;50.634;3.062;2024-03-17T01:34:50;49.28;46.01;57.10;;
75467;Laerm;64050;50.634;3.062;2024-03-17T01:37:16;44.52;37.44;51.79;;
75467;Laerm;64050;50.634;3.062;2024-03-17T01:39:41;40.22;36.44;44.04;;
75467;Laerm;64050;50.634;3.062;2024-03-17T01:42:06;47.05;37.01;51.67;;
75467;Laerm;64050;50.634;3.062;2024-03-17T01:44:31;48.28;39.12;53.68;;
75467;Laerm;64050;50.634;3.062;2024-03-17T01:46:56;40.60;37.52;49.53;;
75467;Laerm;64050;50.634;3.062;2024-03-17T01:49:22;40.74;36.49;46.09;;
75467;Laerm;64050;50.634;3.062;2024-03-17T01:51:48;48.65;37.93;53.94;;
75467;Laerm;64050;50.634;3.062;2024-03-17T01:54:15;46.06;37.65;51.29;;
75467;Laerm;64050;50.634;3.062;2024-03-17T01:56:40;41.02;37.67;50.80;;
75467;Laerm;64050;50.634;3.062;2024-03-17T01:59:07;47.36;37.65;51.36;;
75467;Laerm;64050;50.634;3.062;2024-03-17T02:01:32;49.10;45.58;55.06;;
75467;Laerm;64050;50.634;3.062;2024-03-17T02:03:58;49.14;46.28;53.01;;
75467;Laerm;64050;50.634;3.062;2024-03-17T02:06:23;48.87;46.03;51.68;;
75467;Laerm;64050;50.634;3.062;2024-03-17T02:08:53;49.10;46.20;51.10;;
75467;Laerm;64050;50.634;3.062;2024-03-17T02:11:26;48.94;45.87;51.43;;
75467;Laerm;64050;50.634;3.062;2024-03-17T02:13:52;45.97;36.77;51.96;;
75467;Laerm;64050;50.634;3.062;2024-03-17T02:16:17;40.76;36.91;46.14;;
75467;Laerm;64050;50.634;3.062;2024-03-17T02:18:44;48.99;37.43;58.10;;
75467;Laerm;64050;50.634;3.062;2024-03-17T02:21:09;49.07;46.09;51.39;;
75467;Laerm;64050;50.634;3.062;2024-03-17T02:23:34;48.85;46.30;51.41;;
75467;Laerm;64050;50.634;3.062;2024-03-17T02:25:59;49.58;40.62;54.66;;
75467;Laerm;64050;50.634;3.062;2024-03-17T02:28:25;43.22;37.43;50.59;;
75467;Laerm;64050;50.634;3.062;2024-03-17T02:30:50;49.42;46.44;53.07;;
75467;Laerm;64050;50.634;3.062;2024-03-17T02:33:15;42.00;37.87;51.43;;
75467;Laerm;64050;50.634;3.062;2024-03-17T02:35:40;40.97;37.25;46.93;;
75467;Laerm;64050;50.634;3.062;2024-03-17T02:38:06;48.01;37.65;52.34;;
75467;Laerm;64050;50.634;3.062;2024-03-17T02:40:32;49.31;46.28;52.85;;
75467;Laerm;64050;50.634;3.062;2024-03-17T02:42:58;47.92;37.12;52.21;;
75467;Laerm;64050;50.634;3.062;2024-03-17T02:45:24;41.41;37.72;44.57;;
75467;Laerm;64050;50.634;3.062;2024-03-17T02:47:49;45.05;38.02;51.08;;
75467;Laerm;64050;50.634;3.062;2024-03-17T02:50:15;48.82;46.15;51.35;;
75467;Laerm;64050;50.634;3.062;2024-03-17T02:52:41;44.51;37.15;51.65;;
75467;Laerm;64050;50.634;3.062;2024-03-17T02:55:06;40.75;37.30;46.14;;
75467;Laerm;64050;50.634;3.062;2024-03-17T02:57:31;48.56;40.58;56.54;;
75467;Laerm;64050;50.634;3.062;2024-03-17T02:59:57;48.99;40.30;59.84;;
75467;Laerm;64050;50.634;3.062;2024-03-17T03:02:23;41.28;37.16;46.59;;
75467;Laerm;64050;50.634;3.062;2024-03-17T03:04:48;40.53;36.96;47.28;;
75467;Laerm;64050;50.634;3.062;2024-03-17T03:07:13;46.07;38.30;51.96;;
75467;Laerm;64050;50.634;3.062;2024-03-17T03:09:39;49.09;46.33;51.72;;
75467;Laerm;64050;50.634;3.062;2024-03-17T03:12:04;48.94;46.14;51.34;;
75467;Laerm;64050;50.634;3.062;2024-03-17T03:14:30;43.60;37.17;51.29;;
75467;Laerm;64050;50.634;3.062;2024-03-17T03:16:55;45.70;37.26;51.38;;
75467;Laerm;64050;50.634;3.062;2024-03-17T03:19:20;48.37;36.30;58.86;;
75467;Laerm;64050;50.634;3.062;2024-03-17T03:21:46;41.48;36.33;47.71;;
75467;Laerm;64050;50.634;3.062;2024-03-17T03:24:11;40.35;36.92;47.92;;
75467;Laerm;64050;50.634;3.062;2024-03-17T03:26:37;47.84;37.48;51.34;;
75467;Laerm;64050;50.634;3.062;2024-03-17T03:29:03;49.15;45.98;51.75;;
75467;Laerm;64050;50.634;3.062;2024-03-17T03:31:29;44.74;37.05;51.47;;
75467;Laerm;64050;50.634;3.062;2024-03-17T03:33:54;42.29;37.05;60.42;;
75467;Laerm;64050;50.634;3.062;2024-03-17T03:36:22;45.57;35.99;50.86;;
75467;Laerm;64050;50.634;3.062;2024-03-17T03:38:47;48.93;45.69;51.02;;
75467;Laerm;64050;50.634;3.062;2024-03-17T03:41:15;45.44;37.27;51.19;;
75467;Laerm;64050;50.634;3.062;2024-03-17T03:43:41;41.35;37.60;48.67;;
75467;Laerm;64050;50.634;3.062;2024-03-17T03:46:08;48.31;37.95;52.41;;
75467;Laerm;64050;50.634;3.062;2024-03-17T03:48:33;48.13;37.31;51.48;;
75467;Laerm;64050;50.634;3.062;2024-03-17T03:51:05;38.75;36.04;45.59;;
75467;Laerm;64050;50.634;3.062;2024-03-17T03:53:30;40.48;35.80;47.29;;
75467;Laerm;64050;50.634;3.062;2024-03-17T03:55:56;44.95;36.46;51.21;;
75467;Laerm;64050;50.634;3.062;2024-03-17T03:58:21;49.05;46.47;51.80;;
75467;Laerm;64050;50.634;3.062;2024-03-17T04:00:46;48.33;37.97;51.46;;
75467;Laerm;64050;50.634;3.062;2024-03-17T04:03:11;42.90;37.64;58.66;;
75467;Laerm;64050;50.634;3.062;2024-03-17T04:05:37;44.50;36.36;58.00;;
75467;Laerm;64050;50.634;3.062;2024-03-17T04:08:02;48.72;45.97;51.28;;
75467;Laerm;64050;50.634;3.062;2024-03-17T04:10:27;43.36;37.59;52.18;;
75467;Laerm;64050;50.634;3.062;2024-03-17T04:12:53;39.95;36.56;45.83;;
75467;Laerm;64050;50.634;3.062;2024-03-17T04:15:18;46.51;37.88;51.47;;
75467;Laerm;64050;50.634;3.062;2024-03-17T04:17:44;48.87;45.91;51.25;;
75467;Laerm;64050;50.634;3.062;2024-03-17T04:20:09;45.37;38.00;55.55;;
75467;Laerm;64050;50.634;3.062;2024-03-17T04:22:38;40.24;37.63;45.00;;
75467;Laerm;64050;50.634;3.062;2024-03-17T04:25:03;41.65;37.23;44.98;;
75467;Laerm;64050;50.634;3.062;2024-03-17T04:27:29;47.97;38.79;62.56;;
75467;Laerm;64050;50.634;3.062;2024-03-17T04:29:55;48.85;46.00;51.38;;
75467;Laerm;64050;50.634;3.062;2024-03-17T04:32:21;47.92;37.05;51.55;;
75467;Laerm;64050;50.634;3.062;2024-03-17T04:34:46;39.82;36.26;43.82;;
75467;Laerm;64050;50.634;3.062;2024-03-17T04:37:12;46.09;37.67;50.96;;
75467;Laerm;64050;50.634;3.062;2024-03-17T04:39:41;47.21;37.32;52.79;;
75467;Laerm;64050;50.634;3.062;2024-03-17T04:42:09;43.83;36.39;61.96;;
75467;Laerm;64050;50.634;3.062;2024-03-17T04:44:35;41.96;37.19;47.93;;
75467;Laerm;64050;50.634;3.062;2024-03-17T04:47:00;48.03;40.95;51.53;;
75467;Laerm;64050;50.634;3.062;2024-03-17T04:49:26;49.10;45.83;53.05;;
75467;Laerm;64050;50.634;3.062;2024-03-17T04:51:51;44.30;38.76;50.99;;
75467;Laerm;64050;50.634;3.062;2024-03-17T04:54:16;42.78;39.07;46.10;;
75467;Laerm;64050;50.634;3.062;2024-03-17T04:56:41;43.13;39.14;49.59;;
75467;Laerm;64050;50.634;3.062;2024-03-17T04:59:06;48.86;39.04;51.56;;
75467;Laerm;64050;50.634;3.062;2024-03-17T05:01:32;49.32;46.00;51.61;;
75467;Laerm;64050;50.634;3.062;2024-03-17T05:04:01;47.78;39.54;51.75;;
75467;Laerm;64050;50.634;3.062;2024-03-17T05:06:28;43.06;38.40;49.02;;
75467;Laerm;64050;50.634;3.062;2024-03-17T05:08:53;48.42;39.55;52.12;;
75467;Laerm;64050;50.634;3.062;2024-03-17T05:11:18;46.82;38.84;51.74;;
75467;Laerm;64050;50.634;3.062;2024-03-17T05:13:44;42.95;38.40;47.83;;
75467;Laerm;64050;50.634;3.062;2024-03-17T05:16:10;44.36;39.55;55.79;;
75467;Laerm;64050;50.634;3.062;2024-03-17T05:18:35;48.50;42.24;52.48;;
75467;Laerm;64050;50.634;3.062;2024-03-17T05:21:03;49.34;46.34;54.40;;
75467;Laerm;64050;50.634;3.062;2024-03-17T05:23:30;45.88;40.13;52.50;;
75467;Laerm;64050;50.634;3.062;2024-03-17T05:25:56;43.17;40.07;47.21;;
75467;Laerm;64050;50.634;3.062;2024-03-17T05:28:22;46.74;40.79;52.10;;
75467;Laerm;64050;50.634;3.062;2024-03-17T05:30:47;49.16;40.86;51.81;;
75467;Laerm;64050;50.634;3.062;2024-03-17T05:33:19;43.93;40.08;48.34;;
75467;Laerm;64050;50.634;3.062;2024-03-17T05:38:14;48.38;39.14;63.48;;
75467;Laerm;64050;50.634;3.062;2024-03-17T05:40:40;49.01;39.28;52.01;;
75467;Laerm;64050;50.634;3.062;2024-03-17T05:43:06;42.77;38.90;47.00;;
75467;Laerm;64050;50.634;3.062;2024-03-17T05:45:31;43.60;39.98;59.17;;
75467;Laerm;64050;50.634;3.062;2024-03-17T05:47:57;49.96;39.75;72.27;;
75467;Laerm;64050;50.634;3.062;2024-03-17T05:50:22;49.04;41.82;61.41;;
75467;Laerm;64050;50.634;3.062;2024-03-17T05:52:47;49.77;46.48;69.24;;
75467;Laerm;64050;50.634;3.062;2024-03-17T05:55:13;46.32;39.40;57.80;;
75467;Laerm;64050;50.634;3.062;2024-03-17T05:57:38;41.87;38.20;54.17;;
75467;Laerm;64050;50.634;3.062;2024-03-17T06:00:03;48.57;39.83;54.88;;
75467;Laerm;64050;50.634;3.062;2024-03-17T06:02:28;48.92;40.69;53.72;;
75467;Laerm;64050;50.634;3.062;2024-03-17T06:04:55;45.31;41.00;52.98;;
75467;Laerm;64050;50.634;3.062;2024-03-17T06:07:20;45.33;40.58;54.57;;
75467;Laerm;64050;50.634;3.062;2024-03-17T06:09:45;46.38;40.28;66.82;;
75467;Laerm;64050;50.634;3.062;2024-03-17T06:12:12;49.22;41.22;53.98;;
75467;Laerm;64050;50.634;3.062;2024-03-17T06:14:37;45.34;39.54;54.34;;
75467;Laerm;64050;50.634;3.062;2024-03-17T06:17:03;43.40;39.24;54.09;;
75467;Laerm;64050;50.634;3.062;2024-03-17T06:19:30;44.37;40.43;51.16;;
75467;Laerm;64050;50.634;3.062;2024-03-17T06:21:55;49.58;43.45;58.93;;
75467;Laerm;64050;50.634;3.062;2024-03-17T06:24:21;49.45;46.39;53.95;;
75467;Laerm;64050;50.634;3.062;2024-03-17T06:26:46;48.84;40.13;63.02;;
75467;Laerm;64050;50.634;3.062;2024-03-17T06:29:13;46.17;39.74;52.30;;
75467;Laerm;64050;50.634;3.062;2024-03-17T06:31:40;47.88;39.28;51.61;;
75467;Laerm;64050;50.634;3.062;2024-03-17T06:34:05;50.52;38.65;71.70;;
75467;Laerm;64050;50.634;3.062;2024-03-17T06:36:30;49.13;38.54;68.23;;
75467;Laerm;64050;50.634;3.062;2024-03-17T06:38:55;47.25;39.43;62.53;;
75467;Laerm;64050;50.634;3.062;2024-03-17T06:41:21;47.73;44.29;56.68;;
75467;Laerm;64050;50.634;3.062;2024-03-17T06:43:46;42.23;39.09;55.01;;
75467;Laerm;64050;50.634;3.062;2024-03-17T06:46:11;43.02;39.49;50.68;;
75467;Laerm;64050;50.634;3.062;2024-03-17T06:48:36;45.09;39.12;70.46;;
75467;Laerm;64050;50.634;3.062;2024-03-17T06:51:02;50.48;45.59;65.48;;
75467;Laerm;64050;50.634;3.062;2024-03-17T06:53:27;47.32;40.30;64.17;;
75467;Laerm;64050;50.634;3.062;2024-03-17T06:58:19;48.28;43.78;57.13;;
75467;Laerm;64050;50.634;3.062;2024-03-17T07:00:57;51.91;47.19;61.03;;
75467;Laerm;64050;50.634;3.062;2024-03-17T07:03:24;48.68;41.39;57.95;;
75467;Laerm;64050;50.634;3.062;2024-03-17T07:05:53;49.48;41.16;56.48;;
75467;Laerm;64050;50.634;3.062;2024-03-17T07:08:19;51.93;46.85;59.03;;
75467;Laerm;64050;50.634;3.062;2024-03-17T07:10:54;51.66;44.39;68.79;;
75467;Laerm;64050;50.634;3.062;2024-03-17T07:13:19;48.10;43.22;56.38;;
75467;Laerm;64050;50.634;3.062;2024-03-17T07:15:47;49.57;43.83;59.08;;
75467;Laerm;64050;50.634;3.062;2024-03-17T07:18:13;47.41;42.25;55.05;;
75467;Laerm;64050;50.634;3.062;2024-03-17T07:20:38;47.28;41.34;59.49;;
75467;Laerm;64050;50.634;3.062;2024-03-17T07:23:04;46.11;41.21;54.69;;
75467;Laerm;64050;50.634;3.062;2024-03-17T07:25:29;45.79;40.84;53.17;;
75467;Laerm;64050;50.634;3.062;2024-03-17T07:27:54;47.65;41.25;54.60;;
75467;Laerm;64050;50.634;3.062;2024-03-17T07:30:20;49.63;45.19;56.54;;
75467;Laerm;64050;50.634;3.062;2024-03-17T07:32:45;46.70;40.88;55.43;;
75467;Laerm;64050;50.634;3.062;2024-03-17T07:35:10;55.05;43.17;67.20;;
75467;Laerm;64050;50.634;3.062;2024-03-17T07:37:35;53.56;48.66;58.40;;
75467;Laerm;64050;50.634;3.062;2024-03-17T07:40:03;53.04;47.39;60.90;;
75467;Laerm;64050;50.634;3.062;2024-03-17T07:42:28;52.90;47.09;58.62;;
75467;Laerm;64050;50.634;3.062;2024-03-17T07:44:54;51.75;46.83;63.93;;
75467;Laerm;64050;50.634;3.062;2024-03-17T07:47:19;51.97;47.51;57.18;;
75467;Laerm;64050;50.634;3.062;2024-03-17T07:49:46;51.31;47.05;57.36;;
75467;Laerm;64050;50.634;3.062;2024-03-17T07:52:11;51.61;44.91;58.36;;
75467;Laerm;64050;50.634;3.062;2024-03-17T07:54:36;53.67;48.94;60.17;;
75467;Laerm;64050;50.634;3.062;2024-03-17T07:57:02;51.16;46.98;58.23;;
75467;Laerm;64050;50.634;3.062;2024-03-17T07:59:27;49.82;43.84;57.67;;
75467;Laerm;64050;50.634;3.062;2024-03-17T08:01:53;50.97;45.99;56.65;;
75467;Laerm;64050;50.634;3.062;2024-03-17T08:04:19;49.57;44.14;58.11;;
75467;Laerm;64050;50.634;3.062;2024-03-17T08:06:44;50.43;45.27;64.58;;
75467;Laerm;64050;50.634;3.062;2024-03-17T08:09:09;49.52;44.44;67.28;;
75467;Laerm;64050;50.634;3.062;2024-03-17T08:11:35;50.35;44.92;57.32;;
75467;Laerm;64050;50.634;3.062;2024-03-17T08:14:00;51.19;47.09;65.25;;
75467;Laerm;64050;50.634;3.062;2024-03-17T08:16:26;51.16;46.80;61.56;;
75467;Laerm;64050;50.634;3.062;2024-03-17T08:18:53;52.36;47.92;57.12;;
75467;Laerm;64050;50.634;3.062;2024-03-17T08:21:18;51.89;47.77;62.52;;
75467;Laerm;64050;50.634;3.062;2024-03-17T08:23:43;50.52;46.55;55.79;;
75467;Laerm;64050;50.634;3.062;2024-03-17T08:26:11;50.74;46.52;57.62;;
75467;Laerm;64050;50.634;3.062;2024-03-17T08:28:36;51.19;46.50;58.23;;
75467;Laerm;64050;50.634;3.062;2024-03-17T08:31:01;51.71;45.20;63.69;;
75467;Laerm;64050;50.634;3.062;2024-03-17T08:33:27;51.67;46.50;57.76;;
75467;Laerm;64050;50.634;3.062;2024-03-17T08:38:18;52.69;45.71;58.31;;
75467;Laerm;64050;50.634;3.062;2024-03-17T08:40:45;52.25;47.34;58.98;;
75467;Laerm;64050;50.634;3.062;2024-03-17T08:43:10;50.51;46.57;55.96;;
75467;Laerm;64050;50.634;3.062;2024-03-17T08:45:35;52.42;49.45;57.30;;
75467;Laerm;64050;50.634;3.062;2024-03-17T08:48:00;53.83;50.05;58.63;;
75467;Laerm;64050;50.634;3.062;2024-03-17T08:50:26;53.56;50.17;60.39;;
75467;Laerm;64050;50.634;3.062;2024-03-17T08:52:51;51.68;47.36;60.47;;
75467;Laerm;64050;50.634;3.062;2024-03-17T08:55:16;51.23;47.34;57.70;;
75467;Laerm;64050;50.634;3.062;2024-03-17T08:57:42;51.95;46.72;68.80;;
75467;Laerm;64050;50.634;3.062;2024-03-17T09:00:07;54.96;47.75;67.53;;
75467;Laerm;64050;50.634;3.062;2024-03-17T09:02:34;54.12;46.40;59.85;;
75467;Laerm;64050;50.634;3.062;2024-03-17T09:04:59;50.28;44.74;56.60;;
75467;Laerm;64050;50.634;3.062;2024-03-17T09:07:24;53.01;45.26;61.23;;
75467;Laerm;64050;50.634;3.062;2024-03-17T09:09:49;53.78;46.28;60.68;;
75467;Laerm;64050;50.634;3.062;2024-03-17T09:12:15;54.72;46.25;63.95;;
75467;Laerm;64050;50.634;3.062;2024-03-17T09:14:41;53.08;45.76;78.53;;
75467;Laerm;64050;50.634;3.062;2024-03-17T09:17:07;56.16;48.67;79.01;;
75467;Laerm;64050;50.634;3.062;2024-03-17T09:19:32;55.74;51.79;61.23;;
75467;Laerm;64050;50.634;3.062;2024-03-17T09:21:58;56.90;45.32;77.92;;
75467;Laerm;64050;50.634;3.062;2024-03-17T09:24:24;56.53;49.48;81.01;;
75467;Laerm;64050;50.634;3.062;2024-03-17T09:26:49;53.57;49.40;64.38;;
75467;Laerm;64050;50.634;3.062;2024-03-17T09:29:14;53.95;47.69;58.83;;
75467;Laerm;64050;50.634;3.062;2024-03-17T09:31:42;52.15;46.28;61.28;;
75467;Laerm;64050;50.634;3.062;2024-03-17T09:34:08;52.25;46.15;64.19;;
75467;Laerm;64050;50.634;3.062;2024-03-17T09:36:34;54.28;50.63;62.18;;
75467;Laerm;64050;50.634;3.062;2024-03-17T09:38:59;54.04;51.06;62.79;;
75467;Laerm;64050;50.634;3.062;2024-03-17T09:41:25;54.97;49.82;65.31;;
75467;Laerm;64050;50.634;3.062;2024-03-17T09:43:55;54.09;49.97;71.89;;
75467;Laerm;64050;50.634;3.062;2024-03-17T09:46:24;54.65;49.42;59.66;;
75467;Laerm;64050;50.634;3.062;2024-03-17T09:48:51;51.42;46.90;58.14;;
75467;Laerm;64050;50.634;3.062;2024-03-17T09:51:20;51.60;47.95;56.85;;
75467;Laerm;64050;50.634;3.062;2024-03-17T09:53:46;52.27;46.63;63.02;;
75467;Laerm;64050;50.634;3.062;2024-03-17T09:58:37;50.64;44.07;66.75;;
75467;Laerm;64050;50.634;3.062;2024-03-17T10:01:02;50.56;44.43;60.28;;
75467;Laerm;64050;50.634;3.062;2024-03-17T10:06:26;51.10;46.83;60.47;;
75467;Laerm;64050;50.634;3.062;2024-03-17T10:11:18;48.86;43.32;57.99;;
75467;Laerm;64050;50.634;3.062;2024-03-17T10:13:44;52.43;42.88;69.78;;
75467;Laerm;64050;50.634;3.062;2024-03-17T10:16:17;49.57;43.20;57.61;;
75467;Laerm;64050;50.634;3.062;2024-03-17T10:18:45;50.46;46.17;60.78;;
75467;Laerm;64050;50.634;3.062;2024-03-17T10:21:21;49.26;43.50;56.75;;
75467;Laerm;64050;50.634;3.062;2024-03-17T10:23:49;50.82;46.07;59.03;;
75467;Laerm;64050;50.634;3.062;2024-03-17T10:26:29;50.49;46.13;55.87;;
75467;Laerm;64050;50.634;3.062;2024-03-17T10:28:54;50.01;46.06;61.75;;
75467;Laerm;64050;50.634;3.062;2024-03-17T10:31:20;50.33;46.35;61.66;;
75467;Laerm;64050;50.634;3.062;2024-03-17T10:33:46;50.55;46.27;58.81;;
75467;Laerm;64050;50.634;3.062;2024-03-17T10:36:25;50.30;45.94;59.54;;
75467;Laerm;64050;50.634;3.062;2024-03-17T10:38:53;52.43;48.08;60.30;;
75467;Laerm;64050;50.634;3.062;2024-03-17T10:41:20;51.80;46.39;58.69;;
75467;Laerm;64050;50.634;3.062;2024-03-17T10:43:47;53.54;48.24;64.35;;
75467;Laerm;64050;50.634;3.062;2024-03-17T10:46:12;53.47;48.99;61.85;;
75467;Laerm;64050;50.634;3.062;2024-03-17T10:48:39;55.35;50.34;64.67;;
75467;Laerm;64050;50.634;3.062;2024-03-17T10:51:06;54.90;47.37;64.05;;
75467;Laerm;64050;50.634;3.062;2024-03-17T10:53:33;52.32;47.03;62.72;;
75467;Laerm;64050;50.634;3.062;2024-03-17T10:56:08;52.00;47.17;57.75;;
75467;Laerm;64050;50.634;3.062;2024-03-17T10:58:36;57.85;49.02;72.66;;
75467;Laerm;64050;50.634;3.062;2024-03-17T11:01:03;52.04;47.28;63.00;;
75467;Laerm;64050;50.634;3.062;2024-03-17T11:03:32;50.53;46.64;61.56;;
75467;Laerm;64050;50.634;3.062;2024-03-17T11:05:58;51.55;46.64;60.36;;
75467;Laerm;64050;50.634;3.062;2024-03-17T11:08:24;52.73;47.16;62.14;;
75467;Laerm;64050;50.634;3.062;2024-03-17T11:10:50;50.81;46.39;64.16;;
75467;Laerm;64050;50.634;3.062;2024-03-17T11:13:27;50.98;46.11;60.37;;
75467;Laerm;64050;50.634;3.062;2024-03-17T11:15:53;50.74;45.85;56.73;;
75467;Laerm;64050;50.634;3.062;2024-03-17T11:20:58;54.83;49.68;76.33;;
75467;Laerm;64050;50.634;3.062;2024-03-17T11:23:31;53.41;49.24;61.79;;
75467;Laerm;64050;50.634;3.062;2024-03-17T11:25:57;52.97;48.81;58.53;;
75467;Laerm;64050;50.634;3.062;2024-03-17T11:31:05;54.39;50.83;60.02;;
75467;Laerm;64050;50.634;3.062;2024-03-17T11:38:54;53.66;49.73;67.44;;
75467;Laerm;64050;50.634;3.062;2024-03-17T11:46:51;57.47;53.97;61.93;;
75467;Laerm;64050;50.634;3.062;2024-03-17T11:49:24;57.99;53.26;66.38;;
75467;Laerm;64050;50.634;3.062;2024-03-17T11:51:50;56.64;52.73;65.15;;
75467;Laerm;64050;50.634;3.062;2024-03-17T11:54:17;56.62;52.76;61.39;;
75467;Laerm;64050;50.634;3.062;2024-03-17T11:56:48;56.49;52.71;60.81;;
75467;Laerm;64050;50.634;3.062;2024-03-17T11:59:14;56.45;52.14;60.73;;
75467;Laerm;64050;50.634;3.062;2024-03-17T12:01:42;56.35;52.30;60.97;;
75467;Laerm;64050;50.634;3.062;2024-03-17T12:04:08;56.43;51.96;60.62;;
75467;Laerm;64050;50.634;3.062;2024-03-17T12:06:33;57.16;53.34;64.54;;
75467;Laerm;64050;50.634;3.062;2024-03-17T12:11:42;57.09;53.45;61.36;;
75467;Laerm;64050;50.634;3.062;2024-03-17T12:14:14;57.52;53.80;67.77;;
75467;Laerm;64050;50.634;3.062;2024-03-17T12:16:46;57.27;53.76;65.39;;
75467;Laerm;64050;50.634;3.062;2024-03-17T12:19:13;57.12;52.69;67.61;;
75467;Laerm;64050;50.634;3.062;2024-03-17T12:21:40;57.26;53.24;61.44;;
75467;Laerm;64050;50.634;3.062;2024-03-17T12:24:10;56.60;53.04;63.22;;
75467;Laerm;64050;50.634;3.062;2024-03-17T12:26:38;56.73;52.73;62.28;;
75467;Laerm;64050;50.634;3.062;2024-03-17T12:29:04;56.93;53.38;60.89;;
75467;Laerm;64050;50.634;3.062;2024-03-17T12:31:29;59.73;53.44;73.98;;
75467;Laerm;64050;50.634;3.062;2024-03-17T12:33:54;61.12;54.02;74.70;;
75467;Laerm;64050;50.634;3.062;2024-03-17T12:36:19;57.40;53.95;63.68;;
75467;Laerm;64050;50.634;3.062;2024-03-17T12:38:45;57.42;53.63;67.74;;
75467;Laerm;64050;50.634;3.062;2024-03-17T12:41:17;57.58;53.32;63.31;;
75467;Laerm;64050;50.634;3.062;2024-03-17T12:43:48;57.18;53.12;67.47;;
75467;Laerm;64050;50.634;3.062;2024-03-17T12:46:14;57.55;53.17;73.59;;
75467;Laerm;64050;50.634;3.062;2024-03-17T12:48:39;57.31;53.47;65.85;;
75467;Laerm;64050;50.634;3.062;2024-03-17T12:51:04;57.65;54.14;66.25;;
75467;Laerm;64050;50.634;3.062;2024-03-17T12:53:30;58.03;53.42;69.16;;
75467;Laerm;64050;50.634;3.062;2024-03-17T12:55:55;56.94;52.90;61.72;;
75467;Laerm;64050;50.634;3.062;2024-03-17T12:58:39;57.16;52.93;63.92;;
75467;Laerm;64050;50.634;3.062;2024-03-17T13:01:23;57.38;53.93;71.13;;
75467;Laerm;64050;50.634;3.062;2024-03-17T13:03:48;58.62;52.85;74.58;;
75467;Laerm;64050;50.634;3.062;2024-03-17T13:06:22;57.12;53.18;67.07;;
75467;Laerm;64050;50.634;3.062;2024-03-17T13:08:49;57.82;53.51;71.66;;
75467;Laerm;64050;50.634;3.062;2024-03-17T13:11:14;59.05;53.56;75.04;;
75467;Laerm;64050;50.634;3.062;2024-03-17T13:13:39;58.08;53.04;76.16;;
75467;Laerm;64050;50.634;3.062;2024-03-17T13:16:04;57.39;53.03;64.48;;
75467;Laerm;64050;50.634;3.062;2024-03-17T13:18:29;57.23;51.52;68.47;;
75467;Laerm;64050;50.634;3.062;2024-03-17T13:20:55;57.37;53.31;64.53;;
75467;Laerm;64050;50.634;3.062;2024-03-17T13:23:23;57.50;53.68;69.37;;
75467;Laerm;64050;50.634;3.062;2024-03-17T13:25:49;57.08;53.00;61.81;;
75467;Laerm;64050;50.634;3.062;2024-03-17T13:28:14;58.00;53.61;73.22;;
75467;Laerm;64050;50.634;3.062;2024-03-17T13:30:40;56.80;52.95;63.67;;
75467;Laerm;64050;50.634;3.062;2024-03-17T13:33:06;57.20;53.09;63.67;;
75467;Laerm;64050;50.634;3.062;2024-03-17T13:35:35;59.10;53.90;72.36;;
75467;Laerm;64050;50.634;3.062;2024-03-17T13:38:04;57.40;53.62;66.30;;
75467;Laerm;64050;50.634;3.062;2024-03-17T13:40:31;57.31;53.46;62.25;;
75467;Laerm;64050;50.634;3.062;2024-03-17T13:42:57;57.65;52.53;70.57;;
75467;Laerm;64050;50.634;3.062;2024-03-17T13:45:23;57.96;53.78;67.53;;
75467;Laerm;64050;50.634;3.062;2024-03-17T13:47:56;57.96;53.77;68.07;;
75467;Laerm;64050;50.634;3.062;2024-03-17T13:50:22;57.40;53.83;65.55;;
75467;Laerm;64050;50.634;3.062;2024-03-17T13:52:47;57.30;53.48;67.19;;
75467;Laerm;64050;50.634;3.062;2024-03-17T13:55:17;57.26;53.54;64.25;;
75467;Laerm;64050;50.634;3.062;2024-03-17T13:57:46;57.34;52.94;62.23;;
75467;Laerm;64050;50.634;3.062;2024-03-17T14:00:12;57.46;53.82;62.70;;
75467;Laerm;64050;50.634;3.062;2024-03-17T14:02:41;57.48;53.65;64.02;;
75467;Laerm;64050;50.634;3.062;2024-03-17T14:05:07;57.33;53.31;63.68;;
75467;Laerm;64050;50.634;3.062;2024-03-17T14:07:33;57.05;53.29;60.64;;
75467;Laerm;64050;50.634;3.062;2024-03-17T14:09:58;57.52;53.83;64.16;;
75467;Laerm;64050;50.634;3.062;2024-03-17T14:12:24;57.36;53.30;63.02;;